createdAt,value
2022-09-20T00:00:18.770Z,75.68
2022-09-20T00:02:48.937Z,75.81
2022-09-20T00:05:22.146Z,75.69
2022-09-20T00:07:52.944Z,76.10
2022-09-20T00:10:23.283Z,75.82
2022-09-20T00:12:53.471Z,76.12
2022-09-20T00:15:23.636Z,76.12
2022-09-20T00:17:53.901Z,76.01
2022-09-20T00:20:29.261Z,75.97
2022-09-20T00:22:59.471Z,76.44
2022-09-20T00:25:30.005Z,76.82
2022-09-20T00:28:00.262Z,77.09
2022-09-20T00:30:31.543Z,77.34
2022-09-20T00:33:01.883Z,77.33
2022-09-20T00:35:32.117Z,77.27
2022-09-20T00:38:02.305Z,77.60
2022-09-20T00:40:32.571Z,77.29
2022-09-20T00:43:02.828Z,77.25
2022-09-20T00:45:34.252Z,77.50
2022-09-20T00:48:08.093Z,77.09
2022-09-20T00:50:45.102Z,76.99
2022-09-20T00:53:20.771Z,77.22
2022-09-20T00:55:57.063Z,77.12
2022-09-20T00:58:30.259Z,77.13
2022-09-20T01:01:01.051Z,77.38
2022-09-20T01:03:33.927Z,77.64
2022-09-20T01:06:11.349Z,77.51
2022-09-20T01:08:44.924Z,77.42
2022-09-20T01:11:15.268Z,77.62
2022-09-20T01:13:45.489Z,77.30
2022-09-20T01:16:18.598Z,77.58
2022-09-20T01:18:50.949Z,77.74
2022-09-20T01:21:24.557Z,77.50
2022-09-20T01:24:03.990Z,77.40
2022-09-20T01:27:01.042Z,77.91
2022-09-20T01:29:50.952Z,78.08
2022-09-20T01:32:26.529Z,78.10
2022-09-20T01:35:03.029Z,78.01
2022-09-20T01:37:45.336Z,78.40
2022-09-20T01:40:25.051Z,78.59
2022-09-20T01:43:05.592Z,78.48
2022-09-20T01:45:39.212Z,78.46
2022-09-20T01:48:21.728Z,78.83
2022-09-20T01:51:13.642Z,78.66
2022-09-20T01:54:13.699Z,78.84
2022-09-20T01:57:10.918Z,78.85
2022-09-20T02:00:08.927Z,78.81
2022-09-20T02:03:18.101Z,78.85
2022-09-20T02:06:20.852Z,78.80
2022-09-20T02:09:30.584Z,79.09
2022-09-20T02:12:21.211Z,79.51
2022-09-20T02:15:00.585Z,79.25
2022-09-20T02:17:38.737Z,79.39
2022-09-20T02:20:30.884Z,79.27
2022-09-20T02:23:15.153Z,79.67
2022-09-20T02:26:13.520Z,79.87
2022-09-20T02:28:58.429Z,79.48
2022-09-20T02:31:56.863Z,79.45
2022-09-20T02:34:54.284Z,79.49
2022-09-20T02:38:02.930Z,79.94
2022-09-20T02:40:59.477Z,79.44
2022-09-20T02:43:37.180Z,79.71
2022-09-20T02:46:13.606Z,79.52
2022-09-20T02:48:50.943Z,79.74
2022-09-20T02:51:28.211Z,79.76
2022-09-20T02:54:15.330Z,79.45
2022-09-20T02:56:55.778Z,79.49
2022-09-20T02:59:35.903Z,79.19
2022-09-20T03:02:18.429Z,79.07
2022-09-20T03:05:04.935Z,79.14
2022-09-20T03:07:44.688Z,78.74
2022-09-20T03:10:25.560Z,78.38
2022-09-20T03:13:13.582Z,78.82
2022-09-20T03:15:56.953Z,78.52
2022-09-20T03:18:37.154Z,78.37
2022-09-20T03:21:20.070Z,78.36
2022-09-20T03:24:00.060Z,78.54
2022-09-20T03:26:46.934Z,78.58
2022-09-20T03:29:35.549Z,78.59
2022-09-20T03:32:18.367Z,78.46
2022-09-20T03:35:00.900Z,78.28
2022-09-20T03:37:49.464Z,78.50
2022-09-20T03:40:42.916Z,78.16
2022-09-20T03:43:29.806Z,78.37
2022-09-20T03:46:13.606Z,78.20
2022-09-20T03:49:24.499Z,78.50
2022-09-20T03:52:06.092Z,77.84
2022-09-20T03:54:57.584Z,77.68
2022-09-20T03:58:06.899Z,78.30
2022-09-20T04:00:56.185Z,78.30
2022-09-20T04:03:35.436Z,78.05
2022-09-20T04:06:21.048Z,78.79
2022-09-20T04:09:27.574Z,78.55
2022-09-20T04:12:07.004Z,78.67
2022-09-20T04:14:46.186Z,78.84
2022-09-20T04:17:31.074Z,78.70
2022-09-20T04:20:06.706Z,78.79
2022-09-20T04:22:37.524Z,78.85
2022-09-20T04:25:16.230Z,78.69
2022-09-20T04:27:51.990Z,78.46
2022-09-20T04:30:27.043Z,78.08
2022-09-20T04:33:04.489Z,78.32
2022-09-20T04:35:56.081Z,77.71
2022-09-20T04:38:27.088Z,77.91
2022-09-20T04:41:20.756Z,77.55
2022-09-20T04:44:22.294Z,77.43
2022-09-20T04:47:32.027Z,76.40
2022-09-20T04:50:33.713Z,75.90
2022-09-20T04:53:41.598Z,75.42
2022-09-20T04:56:24.508Z,74.52
2022-09-20T04:59:10.362Z,74.20
2022-09-20T05:02:15.759Z,73.13
2022-09-20T05:05:21.147Z,72.99
2022-09-20T05:08:21.287Z,71.96
2022-09-20T05:11:15.606Z,71.61
2022-09-20T05:14:02.498Z,71.42
2022-09-20T05:16:46.773Z,71.43
2022-09-20T05:19:30.365Z,71.63
2022-09-20T05:22:27.741Z,71.96
2022-09-20T05:25:27.861Z,72.36
2022-09-20T05:28:09.245Z,72.03
2022-09-20T05:30:47.063Z,72.10
2022-09-20T05:33:25.691Z,72.15
2022-09-20T05:36:08.066Z,71.99
2022-09-20T05:38:50.942Z,71.55
2022-09-20T05:41:32.076Z,71.40
2022-09-20T05:44:16.774Z,71.13
2022-09-20T05:46:57.947Z,70.76
2022-09-20T05:49:42.805Z,70.17
2022-09-20T05:52:32.959Z,69.10
2022-09-20T05:55:21.353Z,68.52
2022-09-20T05:58:06.382Z,68.67
2022-09-20T06:00:45.654Z,68.76
2022-09-20T06:03:27.617Z,69.46
2022-09-20T06:06:05.529Z,68.91
2022-09-20T06:09:13.668Z,67.02
2022-09-20T06:12:02.538Z,65.75
2022-09-20T06:14:43.367Z,64.66
2022-09-20T06:17:28.877Z,62.41
2022-09-20T06:20:14.117Z,62.11
2022-09-20T06:22:47.381Z,60.37
2022-09-20T06:25:22.860Z,59.36
2022-09-20T06:27:56.833Z,57.76
2022-09-20T06:30:29.502Z,58.29
2022-09-20T06:33:04.108Z,58.25
2022-09-20T06:35:41.502Z,58.44
2022-09-20T06:38:42.745Z,57.35
2022-09-20T06:41:26.399Z,57.08
2022-09-20T06:43:59.274Z,57.19
2022-09-20T06:46:30.766Z,57.26
2022-09-20T06:49:04.804Z,57.51
2022-09-20T06:51:38.278Z,55.69
2022-09-20T06:54:15.715Z,55.17
2022-09-20T06:56:47.915Z,53.28
2022-09-20T06:59:18.194Z,52.75
2022-09-20T07:01:49.528Z,51.60
2022-09-20T07:04:22.392Z,52.44
2022-09-20T07:06:52.601Z,52.71
2022-09-20T07:09:22.963Z,52.85
2022-09-20T07:11:53.169Z,51.13
2022-09-20T07:14:23.319Z,52.34
2022-09-20T07:16:56.586Z,52.98
2022-09-20T07:19:29.432Z,52.12
2022-09-20T07:21:59.630Z,50.36
2022-09-20T07:24:31.223Z,49.14
2022-09-20T07:27:03.128Z,48.44
2022-09-20T07:29:35.312Z,48.11
2022-09-20T07:32:05.682Z,47.88
2022-09-20T07:34:38.548Z,47.59
2022-09-20T07:37:08.721Z,47.31
2022-09-20T07:39:39.002Z,47.78
2022-09-20T07:42:09.541Z,48.54
2022-09-20T07:44:42.696Z,47.48
2022-09-20T07:47:14.742Z,46.13
2022-09-20T07:49:47.573Z,46.81
2022-09-20T07:52:17.696Z,46.38
2022-09-20T07:54:48.646Z,45.65
2022-09-20T07:57:19.364Z,44.08
2022-09-20T07:59:49.521Z,44.16
2022-09-20T08:02:19.852Z,44.83
2022-09-20T08:04:52.659Z,44.61
2022-09-20T08:07:22.879Z,43.23
2022-09-20T08:09:53.115Z,44.56
2022-09-20T08:15:14.218Z,45.72
2022-09-20T08:17:44.625Z,45.01
2022-09-20T08:20:18.452Z,45.61
2022-09-20T08:23:06.426Z,46.94
2022-09-20T08:25:39.598Z,44.95
2022-09-20T08:28:09.909Z,45.19
2022-09-20T08:30:40.131Z,45.45
2022-09-20T08:33:11.691Z,44.14
2022-09-20T08:35:44.470Z,45.01
2022-09-20T08:41:08.903Z,44.40
2022-09-20T08:43:45.634Z,44.30
2022-09-20T08:46:23.279Z,43.46
2022-09-20T08:48:55.163Z,42.61
2022-09-20T08:51:33.327Z,44.39
2022-09-20T08:54:04.706Z,44.08
2022-09-20T08:56:39.174Z,42.08
2022-09-20T08:59:17.559Z,42.40
2022-09-20T09:01:48.827Z,44.43
2022-09-20T09:04:21.513Z,45.20
2022-09-20T09:06:55.444Z,45.34
2022-09-20T09:09:29.255Z,45.13
2022-09-20T09:12:00.109Z,43.48
2022-09-20T09:14:44.727Z,41.92
2022-09-20T09:17:17.000Z,41.90
2022-09-20T09:19:49.837Z,41.10
2022-09-20T09:22:29.373Z,41.00
2022-09-20T09:25:32.331Z,40.84
2022-09-20T09:28:06.151Z,38.69
2022-09-20T09:30:36.988Z,39.38
2022-09-20T09:33:26.663Z,38.20
2022-09-20T09:36:02.176Z,37.74
2022-09-20T09:38:37.090Z,36.75
2022-09-20T09:41:09.043Z,36.51
2022-09-20T09:43:40.886Z,37.77
2022-09-20T09:46:29.659Z,35.26
2022-09-20T09:49:15.547Z,36.09
2022-09-20T09:52:03.946Z,37.09
2022-09-20T09:54:40.098Z,37.95
2022-09-20T09:57:26.509Z,38.74
2022-09-20T10:00:29.038Z,39.66
2022-09-20T10:03:31.866Z,41.07
2022-09-20T10:06:13.918Z,40.18
2022-09-20T10:08:56.006Z,41.44
2022-09-20T10:11:40.456Z,40.41
2022-09-20T10:14:26.651Z,40.03
2022-09-20T10:17:12.507Z,40.04
2022-09-20T10:20:06.659Z,41.77
2022-09-20T10:23:26.553Z,41.90
2022-09-20T10:25:48.196Z,42.50
2022-09-20T10:28:38.076Z,41.62
2022-09-20T10:31:23.557Z,42.14
2022-09-20T10:34:20.010Z,41.04
2022-09-20T10:36:52.684Z,41.21
2022-09-20T10:39:28.215Z,41.69
2022-09-20T10:42:21.373Z,40.99
2022-09-20T10:45:10.355Z,41.50
2022-09-20T10:47:49.845Z,40.47
2022-09-20T10:50:30.799Z,40.48
2022-09-20T10:53:16.091Z,41.30
2022-09-20T10:55:54.863Z,38.97
2022-09-20T10:58:52.121Z,38.41
2022-09-20T11:01:34.690Z,36.11
2022-09-20T11:04:27.369Z,35.64
2022-09-20T11:07:07.583Z,38.04
2022-09-20T11:09:43.837Z,37.99
2022-09-20T11:12:19.335Z,37.77
2022-09-20T11:14:54.086Z,36.49
2022-09-20T11:17:32.981Z,36.94
2022-09-20T11:20:11.787Z,38.94
2022-09-20T11:22:48.198Z,39.90
2022-09-20T11:25:26.050Z,41.61
2022-09-20T11:28:05.707Z,42.38
2022-09-20T11:30:39.414Z,45.71
2022-09-20T11:33:22.282Z,47.10
2022-09-20T11:35:56.134Z,47.05
2022-09-20T11:38:31.557Z,49.60
2022-09-20T11:41:08.827Z,50.09
2022-09-20T11:43:42.908Z,51.73
2022-09-20T11:46:16.732Z,55.10
2022-09-20T11:48:52.458Z,58.54
2022-09-20T11:51:49.769Z,60.43
2022-09-20T11:54:49.675Z,63.07
2022-09-20T11:57:20.175Z,65.86
2022-09-20T11:59:55.951Z,62.72
2022-09-20T12:02:37.208Z,63.40
2022-09-20T12:05:28.228Z,65.37
2022-09-20T12:08:01.525Z,66.00
2022-09-20T12:10:35.340Z,68.45
2022-09-20T12:13:08.861Z,68.34
2022-09-20T12:15:42.035Z,67.95
2022-09-20T12:18:33.708Z,71.67
2022-09-20T12:21:16.676Z,70.96
2022-09-20T12:24:04.820Z,71.17
2022-09-20T12:26:49.105Z,72.29
2022-09-20T12:29:34.326Z,72.44
2022-09-20T12:32:06.363Z,72.12
2022-09-20T12:34:40.383Z,72.53
2022-09-20T12:37:26.955Z,69.74
2022-09-20T12:39:58.837Z,70.36
2022-09-20T12:42:35.577Z,71.32
2022-09-20T12:45:10.095Z,71.75
2022-09-20T12:47:41.439Z,71.93
2022-09-20T12:50:30.564Z,72.10
2022-09-20T12:53:07.313Z,71.39
2022-09-20T12:55:42.558Z,69.24
2022-09-20T12:58:24.863Z,69.49
2022-09-20T13:01:33.303Z,69.66
2022-09-20T13:04:34.225Z,69.35
2022-09-20T13:07:35.913Z,67.57
2022-09-20T13:10:23.767Z,67.26
2022-09-20T13:13:00.343Z,66.77
2022-09-20T13:15:33.592Z,66.27
2022-09-20T13:18:05.801Z,64.50
2022-09-20T13:20:40.164Z,63.98
2022-09-20T13:23:17.039Z,64.30
2022-09-20T13:25:51.372Z,64.37
2022-09-20T13:28:34.848Z,63.87
2022-09-20T13:31:26.611Z,65.48
2022-09-20T13:33:57.570Z,66.43
2022-09-20T13:36:31.833Z,67.25
2022-09-20T13:39:03.194Z,68.71
2022-09-20T13:41:36.538Z,69.25
2022-09-20T13:44:07.435Z,68.62
2022-09-20T13:46:47.406Z,68.32
2022-09-20T13:49:21.098Z,68.08
2022-09-20T13:51:54.873Z,69.26
2022-09-20T13:54:30.629Z,67.87
2022-09-20T13:57:05.654Z,68.35
2022-09-20T13:59:39.501Z,69.32
2022-09-20T14:02:25.041Z,71.39
2022-09-20T14:04:58.653Z,69.76
2022-09-20T14:07:31.200Z,69.22
2022-09-20T14:10:01.889Z,68.58
2022-09-20T14:12:37.073Z,69.76
2022-09-20T14:15:12.855Z,70.60
2022-09-20T14:17:43.288Z,68.66
2022-09-20T14:20:18.306Z,69.86
2022-09-20T14:22:48.709Z,70.54
2022-09-20T14:25:25.577Z,70.09
2022-09-20T14:28:24.584Z,69.91
2022-09-20T14:31:09.362Z,68.66
2022-09-20T14:33:44.527Z,66.48
2022-09-20T14:36:18.109Z,65.44
2022-09-20T14:38:50.863Z,65.08
2022-09-20T14:41:29.574Z,64.86
2022-09-20T14:44:04.897Z,65.12
2022-09-20T14:46:38.920Z,65.79
2022-09-20T14:49:23.837Z,64.48
2022-09-20T14:51:53.786Z,65.49
2022-09-20T14:54:30.550Z,64.90
2022-09-20T14:57:01.788Z,64.50
2022-09-20T14:59:40.811Z,64.37
2022-09-20T15:02:17.333Z,63.91
2022-09-20T15:04:56.597Z,64.78
2022-09-20T15:07:27.052Z,66.15
2022-09-20T15:09:57.528Z,66.32
2022-09-20T15:12:29.381Z,65.64
2022-09-20T15:15:05.161Z,65.10
2022-09-20T15:17:35.828Z,64.96
2022-09-20T15:20:06.118Z,64.20
2022-09-20T15:22:36.360Z,65.38
2022-09-20T15:25:08.045Z,66.69
2022-09-20T15:27:38.337Z,65.05
2022-09-20T15:30:13.262Z,65.76
2022-09-20T15:32:44.019Z,66.52
2022-09-20T15:35:18.231Z,67.81
2022-09-20T15:37:48.874Z,69.19
2022-09-20T15:40:19.360Z,69.24
2022-09-20T15:42:50.671Z,70.59
2022-09-20T15:45:26.243Z,71.18
2022-09-20T15:47:57.977Z,71.66
2022-09-20T15:50:28.515Z,72.17
2022-09-20T15:53:00.128Z,72.09
2022-09-20T15:55:30.522Z,73.08
2022-09-20T15:58:00.849Z,73.37
2022-09-20T16:00:36.832Z,74.02
2022-09-20T16:03:07.061Z,73.89
2022-09-20T16:05:37.232Z,74.33
2022-09-20T16:08:07.729Z,75.07
2022-09-20T16:10:39.225Z,75.34
2022-09-20T16:13:10.393Z,75.82
2022-09-20T16:15:45.574Z,75.75
2022-09-20T16:18:28.244Z,76.44
2022-09-20T16:20:58.444Z,76.25
2022-09-20T16:23:28.714Z,76.91
2022-09-20T16:25:58.962Z,76.73
2022-09-20T16:28:29.114Z,77.32
2022-09-20T16:31:03.139Z,77.32
2022-09-20T16:33:34.028Z,77.89
2022-09-20T16:36:08.011Z,78.30
2022-09-20T16:38:38.888Z,78.47
2022-09-20T16:41:09.102Z,77.94
2022-09-20T16:43:39.511Z,77.58
2022-09-20T16:46:13.377Z,77.53
2022-09-20T16:48:47.729Z,77.86
2022-09-20T16:51:18.132Z,74.62
2022-09-20T16:53:48.312Z,72.60
2022-09-20T16:56:25.620Z,72.24
2022-09-20T16:58:56.992Z,72.13
2022-09-20T17:01:30.459Z,72.17
2022-09-20T17:04:05.529Z,71.40
2022-09-20T17:06:37.186Z,71.65
2022-09-20T17:09:09.827Z,72.16
2022-09-20T17:11:41.977Z,72.01
2022-09-20T17:14:12.210Z,72.45
2022-09-20T17:16:47.755Z,71.88
2022-09-20T17:19:19.245Z,71.94
2022-09-20T17:21:52.121Z,72.20
2022-09-20T17:24:26.329Z,72.25
2022-09-20T17:26:56.556Z,72.15
2022-09-20T17:29:27.786Z,72.04
2022-09-20T17:32:01.113Z,71.50
2022-09-20T17:34:31.939Z,70.98
2022-09-20T17:37:03.639Z,70.97
2022-09-20T17:39:33.805Z,70.96
2022-09-20T17:42:04.334Z,72.12
2022-09-20T17:44:36.934Z,72.98
2022-09-20T17:47:10.781Z,73.65
2022-09-20T17:49:41.263Z,73.86
2022-09-20T17:52:12.878Z,73.46
2022-09-20T17:54:43.116Z,73.19
2022-09-20T17:57:13.834Z,73.62
2022-09-20T17:59:44.178Z,73.22
2022-09-20T18:02:17.305Z,73.77
2022-09-20T18:04:47.457Z,74.44
2022-09-20T18:07:17.659Z,74.92
2022-09-20T18:09:47.886Z,76.13
2022-09-20T18:12:21.301Z,75.76
2022-09-20T18:14:51.951Z,76.13
2022-09-20T18:17:24.855Z,76.20
2022-09-20T18:19:55.014Z,75.82
2022-09-20T18:22:25.942Z,75.60
2022-09-20T18:24:56.235Z,75.26
2022-09-20T18:27:26.517Z,75.74
2022-09-20T18:29:56.797Z,75.36
2022-09-20T18:32:30.660Z,75.39
2022-09-20T18:35:00.913Z,74.87
2022-09-20T18:37:31.823Z,75.03
2022-09-20T18:40:02.018Z,75.25
2022-09-20T18:42:32.952Z,75.16
2022-09-20T18:45:03.130Z,75.92
2022-09-20T18:47:36.686Z,76.51
2022-09-20T18:50:12.198Z,76.39
2022-09-20T18:52:42.536Z,76.57
2022-09-20T18:55:14.934Z,76.98
2022-09-20T18:57:45.617Z,76.86
2022-09-20T19:00:17.254Z,77.50
2022-09-20T19:03:10.037Z,77.50
2022-09-20T19:05:44.823Z,77.86
2022-09-20T19:08:28.547Z,77.60
2022-09-20T19:11:04.706Z,77.40
2022-09-20T19:13:43.478Z,78.19
2022-09-20T19:16:23.853Z,78.10
2022-09-20T19:19:20.385Z,78.16
2022-09-20T19:22:00.938Z,77.94
2022-09-20T19:24:58.330Z,77.50
2022-09-20T19:27:31.421Z,77.98
2022-09-20T19:30:02.286Z,77.97
2022-09-20T19:32:34.715Z,77.96
2022-09-20T19:35:11.870Z,78.18
2022-09-20T19:37:54.715Z,78.06
2022-09-20T19:40:33.594Z,78.33
2022-09-20T19:43:23.777Z,79.13
2022-09-20T19:46:02.509Z,79.01
2022-09-20T19:48:40.036Z,79.21
2022-09-20T19:51:17.248Z,79.45
2022-09-20T19:53:48.309Z,79.62
2022-09-20T19:56:27.762Z,79.14
2022-09-20T19:59:01.510Z,79.72
2022-09-20T20:01:35.118Z,80.04
2022-09-20T20:04:06.931Z,79.84
2022-09-20T20:06:48.636Z,79.98
2022-09-20T20:09:25.421Z,80.03
2022-09-20T20:12:03.118Z,79.79
2022-09-20T20:14:41.455Z,79.59
2022-09-20T20:17:26.672Z,79.48
2022-09-20T20:20:08.154Z,79.68
2022-09-20T20:23:18.606Z,79.83
2022-09-20T20:26:00.223Z,80.49
2022-09-20T20:28:30.349Z,80.29
2022-09-20T20:31:02.375Z,80.84
2022-09-20T20:33:33.713Z,81.05
2022-09-20T20:36:06.294Z,80.87
2022-09-20T20:38:40.405Z,80.93
2022-09-20T20:41:13.652Z,80.85
2022-09-20T20:43:47.266Z,81.23
2022-09-20T20:46:19.645Z,80.87
2022-09-20T20:48:50.669Z,81.12
2022-09-20T20:51:23.762Z,81.09
2022-09-20T20:53:58.413Z,81.00
2022-09-20T20:56:32.017Z,80.86
2022-09-20T20:59:02.507Z,81.22
2022-09-20T21:01:34.542Z,80.95
2022-09-20T21:04:09.657Z,81.23
2022-09-20T21:06:41.688Z,81.28
2022-09-20T21:09:14.713Z,80.97
2022-09-20T21:11:46.858Z,81.30
2022-09-20T21:14:17.487Z,81.27
2022-09-20T21:16:47.662Z,80.85
2022-09-20T21:19:19.221Z,81.03
2022-09-20T21:21:50.553Z,80.91
2022-09-20T21:24:24.136Z,81.11
2022-09-20T21:26:56.915Z,81.31
2022-09-20T21:29:27.134Z,81.23
2022-09-20T21:31:57.347Z,80.84
2022-09-20T21:34:27.541Z,80.96
2022-09-20T21:36:57.731Z,80.85
2022-09-20T21:39:30.613Z,81.06
2022-09-20T21:42:00.776Z,80.74
2022-09-20T21:44:31.292Z,80.95
2022-09-20T21:47:01.443Z,80.56
2022-09-20T21:49:31.566Z,80.09
2022-09-20T21:52:01.851Z,79.56
2022-09-20T21:54:34.645Z,79.42
2022-09-20T21:57:04.752Z,79.86
2022-09-20T21:59:35.002Z,79.63
2022-09-20T22:02:05.462Z,79.49
2022-09-20T22:04:35.729Z,79.01
2022-09-20T22:07:06.246Z,79.07
2022-09-20T22:09:40.201Z,79.34
2022-09-20T22:12:10.465Z,79.60
2022-09-20T22:14:40.892Z,79.33
2022-09-20T22:17:11.005Z,79.00
2022-09-20T22:19:41.201Z,79.57
2022-09-20T22:22:11.430Z,79.62
2022-09-20T22:24:44.189Z,79.56
2022-09-20T22:27:14.413Z,79.52
2022-09-20T22:29:47.594Z,78.75
2022-09-20T22:32:17.746Z,79.63
2022-09-20T22:34:47.967Z,79.41
2022-09-20T22:37:18.055Z,79.02
2022-09-20T22:39:53.598Z,79.21
2022-09-20T22:42:23.931Z,79.60
2022-09-20T22:44:56.361Z,79.51
2022-09-20T22:47:26.624Z,80.11
2022-09-20T22:49:59.814Z,80.12
2022-09-20T22:52:30.042Z,80.20
2022-09-20T22:55:02.855Z,80.51
2022-09-20T22:57:33.358Z,80.66
2022-09-20T23:00:04.300Z,80.70
2022-09-20T23:02:34.498Z,80.94
2022-09-20T23:05:09.661Z,80.70
2022-09-20T23:07:40.103Z,80.55
2022-09-20T23:10:15.926Z,80.98
2022-09-20T23:12:46.069Z,81.16
2022-09-20T23:15:16.248Z,80.93
2022-09-20T23:17:46.363Z,80.63
2022-09-20T23:20:17.044Z,80.77
2022-09-20T23:22:50.167Z,80.75
2022-09-20T23:25:22.999Z,80.51
2022-09-20T23:27:53.166Z,80.55
2022-09-20T23:30:23.449Z,81.24
2022-09-20T23:32:56.088Z,81.08
2022-09-20T23:35:28.121Z,81.00
2022-09-20T23:37:59.172Z,80.97
2022-09-20T23:40:32.156Z,80.79
2022-09-20T23:43:02.324Z,81.13
2022-09-20T23:45:32.627Z,81.29
2022-09-20T23:48:06.070Z,81.86
2022-09-20T23:50:36.454Z,81.24
2022-09-20T23:53:06.637Z,81.66
2022-09-20T23:55:39.589Z,81.00
2022-09-20T23:58:09.831Z,81.22
